Mermaid Express — H9PV — position and weather

sailwx.info

Track history (hours):
 
Tides and Currents Weather Stations Pressure Air Temp Water Temp Dewpoint Dewpoint Depression Visibility Wind Speed Wind Dir Waves Ship Positions

Mermaid Express

Last reported at 2014-Jul-08 02:27 UTC. Time now 2014-Jul-31 17:41 UTC.
Position N 35°36' W 012°55'.
Warning: this ship's position is 23 days out of date.

Length 179 m; draft 12.1 m.

Type: Tanker. MMSI: 352866000.

Date/timePositionNaut miles runAvg speedWind from/ knotsBaromVisibWave heightAir tempDewpointWater temp
2014-Jul-08 02:27N 35°36' W 012°55'1111.8
2014-Jul-08 01:29N 35°47' W 012°51'1111.7
2014-Jul-08 00:33N 35°58' W 012°48'1211.9
2014-Jul-07 23:33N 36°09' W 012°44'2412.1
2014-Jul-07 21:32N 36°33' W 012°36'1212.4
2014-Jul-07 20:31N 36°45' W 012°32'1212.5
2014-Jul-07 19:33N 36°57' W 012°27'1212.4
2014-Jul-07 18:33N 37°09' W 012°24'  
2014-Jul-04 08:16N 50°20' W 001°20'912.9
2014-Jul-04 07:33N 50°24' W 001°07'1211.8
2014-Jul-04 06:33N 50°35' W 000°59'8 8.0
2014-Jul-04 05:33N 50°43' W 000°59'8 8.2
2014-Jul-04 04:33N 50°46' W 001°11'5 5.2
2014-Jul-04 03:33N 50°48' W 001°18'3 2.7
2014-Jul-04 02:33N 50°51' W 001°20'0 0.0
2014-Jul-04 01:33N 50°50' W 001°20'0 0.0
2014-Jul-04 00:33N 50°51' W 001°20'0 0.0
2014-Jul-03 23:33N 50°50' W 001°20'0 0.0
2014-Jul-03 22:33N 50°51' W 001°20'0 0.0
2014-Jul-03 21:33N 50°51' W 001°20'0 0.0
2014-Jul-03 20:33N 50°51' W 001°20'0 0.0
2014-Jul-03 19:33N 50°51' W 001°20'0 0.0
2014-Jul-03 18:33N 50°51' W 001°20'0 0.0
2014-Jul-03 17:33N 50°51' W 001°20'0 0.0
2014-Jul-03 16:33N 50°51' W 001°20'0 0.0
2014-Jul-03 15:33N 50°51' W 001°20'0 0.0
2014-Jul-03 14:33N 50°51' W 001°20'0 0.0
2014-Jul-03 13:33N 50°50' W 001°20'0 0.0
2014-Jul-03 12:33N 50°51' W 001°20'0 0.0
2014-Jul-03 11:33N 50°51' W 001°20'0 0.0
2014-Jul-03 10:33N 50°51' W 001°20'0 0.0
2014-Jul-03 09:33N 50°51' W 001°20'0 0.0
2014-Jul-03 08:33N 50°51' W 001°20'0 0.0
2014-Jul-03 07:33N 50°50' W 001°20'0 0.0
2014-Jul-03 06:33N 50°51' W 001°20'0 0.0
2014-Jul-03 05:33N 50°51' W 001°20'0 0.0
2014-Jul-03 04:33N 50°51' W 001°20'0 0.0
2014-Jul-03 03:33N 50°51' W 001°20'0 0.0
2014-Jul-03 02:33N 50°51' W 001°20'0 0.0
2014-Jul-03 01:33N 50°50' W 001°20'0 0.0
2014-Jul-03 00:33N 50°51' W 001°20'0 0.0
2014-Jul-02 23:33N 50°50' W 001°20'0 0.0
2014-Jul-02 22:33N 50°51' W 001°20'0 0.0
2014-Jul-02 21:33N 50°51' W 001°20'0 0.0
2014-Jul-02 20:33N 50°51' W 001°20'0 0.0
2014-Jul-02 19:33N 50°51' W 001°20'0 0.0
2014-Jul-02 18:33N 50°51' W 001°20'0 0.0
2014-Jul-02 17:33N 50°51' W 001°20'0 0.0
2014-Jul-02 16:33N 50°50' W 001°20'0 0.0
2014-Jul-02 15:33N 50°51' W 001°20'0 0.0
2014-Jul-02 14:33N 50°51' W 001°20'0 0.0
2014-Jul-02 13:33N 50°50' W 001°20'0 0.0
2014-Jul-02 12:33N 50°51' W 001°20'0 0.0
2014-Jul-02 11:33N 50°51' W 001°20'0 0.0
2014-Jul-02 10:33N 50°51' W 001°20'0 0.0
2014-Jul-02 09:33N 50°51' W 001°20'0 0.0
2014-Jul-02 08:33N 50°51' W 001°20'0 0.0
2014-Jul-02 07:33N 50°50' W 001°20'0 0.0
2014-Jul-02 06:33N 50°51' W 001°20'0 0.0
2014-Jul-02 05:33N 50°51' W 001°20'0 0.0
2014-Jul-02 04:33N 50°50' W 001°20'0 0.0
2014-Jul-02 03:33N 50°51' W 001°20'0 0.0
2014-Jul-02 02:33N 50°51' W 001°20'0 0.0
2014-Jul-02 01:33N 50°50' W 001°20'0 0.0
2014-Jul-02 00:33N 50°51' W 001°20'0 0.0
2014-Jul-01 23:33N 50°51' W 001°20'0 0.0
2014-Jul-01 22:33N 50°51' W 001°20'0 0.0
2014-Jul-01 21:33N 50°51' W 001°20'0 0.0
2014-Jul-01 20:33N 50°51' W 001°20'0 0.0
2014-Jul-01 19:33N 50°51' W 001°20'0 0.0
2014-Jul-01 18:33N 50°51' W 001°20'0 0.1
2014-Jul-01 17:33N 50°51' W 001°20'0 0.0
2014-Jul-01 16:33N 50°51' W 001°20'0 0.0
2014-Jul-01 15:33N 50°51' W 001°20'0 0.0
2014-Jul-01 14:33N 50°51' W 001°20'0 0.0
2014-Jul-01 13:33N 50°51' W 001°20'0 0.0
2014-Jul-01 12:33N 50°51' W 001°20'0 0.0
2014-Jul-01 11:33N 50°51' W 001°20'0 0.0
2014-Jul-01 10:33N 50°51' W 001°20'0 0.0
2014-Jul-01 09:33N 50°51' W 001°20'0 0.0
2014-Jul-01 08:33N 50°51' W 001°20'0 0.0
2014-Jul-01 07:33N 50°51' W 001°20'0 0.0
2014-Jul-01 06:33N 50°51' W 001°20'0 0.0
2014-Jul-01 05:33N 50°51' W 001°20'0 0.0
2014-Jul-01 04:33N 50°51' W 001°20'0 0.0
2014-Jul-01 03:33N 50°51' W 001°20'0 0.0
2014-Jul-01 02:33N 50°51' W 001°20'0 0.0
2014-Jul-01 01:33N 50°51' W 001°20'0 0.0
2014-Jul-01 00:33N 50°51' W 001°20'0 0.0
2014-Jun-30 23:33N 50°51' W 001°20'0 0.0
2014-Jun-30 22:33N 50°51' W 001°20'0 0.0
2014-Jun-30 21:33N 50°51' W 001°20'0 0.0
2014-Jun-30 20:33N 50°51' W 001°20'0 0.0
2014-Jun-30 19:33N 50°51' W 001°20'0 0.0
2014-Jun-30 18:33N 50°51' W 001°20'0 0.0
2014-Jun-30 17:33N 50°51' W 001°20'0 0.0
2014-Jun-30 16:33N 50°51' W 001°20'0 0.0
2014-Jun-30 15:30N 50°51' W 001°20'0 0.0
2014-Jun-30 14:33N 50°51' W 001°20'0 0.0
2014-Jun-30 13:33N 50°51' W 001°20'0 0.0
2014-Jun-30 12:33N 50°51' W 001°20'0 0.0
2014-Jun-30 11:33N 50°51' W 001°20'0 0.0
2014-Jun-30 10:33N 50°51' W 001°20'0 0.0
2014-Jun-30 09:33N 50°51' W 001°20'0 0.0
2014-Jun-30 08:33N 50°51' W 001°20'0 0.0
2014-Jun-30 07:33N 50°51' W 001°20'0 0.0
2014-Jun-30 06:33N 50°51' W 001°20'0 0.0
2014-Jun-30 05:33N 50°51' W 001°20'0 0.0
2014-Jun-30 04:33N 50°51' W 001°20'0 0.0
2014-Jun-30 03:33N 50°51' W 001°20'0 0.0
2014-Jun-30 02:33N 50°51' W 001°20'0 0.0
2014-Jun-30 01:33N 50°51' W 001°20'2 1.8
2014-Jun-30 00:34N 50°49' W 001°18'6 5.7
2014-Jun-29 23:34N 50°46' W 001°11'9 9.0
2014-Jun-29 22:33N 50°42' W 000°58'5 4.7
2014-Jun-29 21:34N 50°38' W 001°02'1 0.7
2014-Jun-29 20:32N 50°38' W 001°03'0 0.0
2014-Jun-29 19:32N 50°38' W 001°03'0 0.0
2014-Jun-29 18:32N 50°38' W 001°03'0 0.1
2014-Jun-29 17:32N 50°38' W 001°03'0 0.1
2014-Jun-29 16:26N 50°38' W 001°03'0 0.0
2014-Jun-29 15:32N 50°38' W 001°03'0 0.0
2014-Jun-29 14:32N 50°38' W 001°03'0 0.0
2014-Jun-29 13:32N 50°38' W 001°03'0 0.0
2014-Jun-29 12:32N 50°38' W 001°03'0 0.2
2014-Jun-29 11:32N 50°38' W 001°03'0 0.1
2014-Jun-29 10:32N 50°38' W 001°03'0 0.0
2014-Jun-29 09:32N 50°38' W 001°03'0 0.0
2014-Jun-29 08:32N 50°38' W 001°03'0 0.0
2014-Jun-29 07:29N 50°38' W 001°03'0 0.2
2014-Jun-29 06:32N 50°38' W 001°03'0 0.1
2014-Jun-29 05:32N 50°38' W 001°03'0 0.0
2014-Jun-29 04:32N 50°38' W 001°03'0 0.0
2014-Jun-29 03:32N 50°38' W 001°03'0 0.0
2014-Jun-29 02:32N 50°38' W 001°03'0 0.0
2014-Jun-29 01:32N 50°38' W 001°03'0 0.0
2014-Jun-29 00:32N 50°38' W 001°03'0 0.2
2014-Jun-28 23:32N 50°38' W 001°03'0 0.0
2014-Jun-28 22:32N 50°38' W 001°03'0 0.0
2014-Jun-28 21:32N 50°38' W 001°03'0 0.0
2014-Jun-28 20:32N 50°38' W 001°03'0 0.0
2014-Jun-28 19:32N 50°38' W 001°03'0 0.0
2014-Jun-28 18:32N 50°38' W 001°03'0 0.0
2014-Jun-28 17:32N 50°38' W 001°03'0 0.2
2014-Jun-28 16:32N 50°38' W 001°03'0 0.0
2014-Jun-28 15:32N 50°38' W 001°03'0 0.0
2014-Jun-28 14:26N 50°38' W 001°03'0 0.0
2014-Jun-28 13:32N 50°38' W 001°03'0 0.0
2014-Jun-28 12:32N 50°38' W 001°03'0 0.2
2014-Jun-28 11:32N 50°38' W 001°03'0 0.0
2014-Jun-28 10:32N 50°38' W 001°03'0 0.0
2014-Jun-28 09:32N 50°38' W 001°03'0 0.0
2014-Jun-28 08:32N 50°38' W 001°03'0 0.0
2014-Jun-28 07:32N 50°38' W 001°03'0 0.0
2014-Jun-28 06:32N 50°38' W 001°03'0 0.0
2014-Jun-28 05:32N 50°38' W 001°03'0 0.2
2014-Jun-28 04:32N 50°38' W 001°03'0 0.1
2014-Jun-28 03:32N 50°38' W 001°03'0 0.0
2014-Jun-28 02:32N 50°38' W 001°03'  
Track history (hours):
 
Tides and Currents Weather Stations Pressure Air Temp Water Temp Dewpoint Dewpoint Depression Visibility Wind Speed Wind Dir Waves Ship Positions

Mermaid Express

Last reported at 2014-Jul-08 02:27 UTC. Time now 2014-Jul-31 17:41 UTC.
Position N 35°36' W 012°55'.
Warning: this ship's position is 23 days out of date.

Length 179 m; draft 12.1 m.

Type: Tanker. MMSI: 352866000.

Date/timePositionNaut miles runAvg speedWind from/ knotsBaromVisibWave heightAir tempDewpointWater temp
2014-Jul-08 02:27N 35°36' W 012°55'1111.8
2014-Jul-08 01:29N 35°47' W 012°51'1111.7
2014-Jul-08 00:33N 35°58' W 012°48'1211.9
2014-Jul-07 23:33N 36°09' W 012°44'2412.1
2014-Jul-07 21:32N 36°33' W 012°36'1212.4
2014-Jul-07 20:31N 36°45' W 012°32'1212.5
2014-Jul-07 19:33N 36°57' W 012°27'1212.4
2014-Jul-07 18:33N 37°09' W 012°24'  
2014-Jul-04 08:16N 50°20' W 001°20'912.9
2014-Jul-04 07:33N 50°24' W 001°07'1211.8
2014-Jul-04 06:33N 50°35' W 000°59'8 8.0
2014-Jul-04 05:33N 50°43' W 000°59'8 8.2
2014-Jul-04 04:33N 50°46' W 001°11'5 5.2
2014-Jul-04 03:33N 50°48' W 001°18'3 2.7
2014-Jul-04 02:33N 50°51' W 001°20'0 0.0
2014-Jul-04 01:33N 50°50' W 001°20'0 0.0
2014-Jul-04 00:33N 50°51' W 001°20'0 0.0
2014-Jul-03 23:33N 50°50' W 001°20'0 0.0
2014-Jul-03 22:33N 50°51' W 001°20'0 0.0
2014-Jul-03 21:33N 50°51' W 001°20'0 0.0
2014-Jul-03 20:33N 50°51' W 001°20'0 0.0
2014-Jul-03 19:33N 50°51' W 001°20'0 0.0
2014-Jul-03 18:33N 50°51' W 001°20'0 0.0
2014-Jul-03 17:33N 50°51' W 001°20'0 0.0
2014-Jul-03 16:33N 50°51' W 001°20'0 0.0
2014-Jul-03 15:33N 50°51' W 001°20'0 0.0
2014-Jul-03 14:33N 50°51' W 001°20'0 0.0
2014-Jul-03 13:33N 50°50' W 001°20'0 0.0
2014-Jul-03 12:33N 50°51' W 001°20'0 0.0
2014-Jul-03 11:33N 50°51' W 001°20'0 0.0
2014-Jul-03 10:33N 50°51' W 001°20'0 0.0
2014-Jul-03 09:33N 50°51' W 001°20'0 0.0
2014-Jul-03 08:33N 50°51' W 001°20'0 0.0
2014-Jul-03 07:33N 50°50' W 001°20'0 0.0
2014-Jul-03 06:33N 50°51' W 001°20'0 0.0
2014-Jul-03 05:33N 50°51' W 001°20'0 0.0
2014-Jul-03 04:33N 50°51' W 001°20'0 0.0
2014-Jul-03 03:33N 50°51' W 001°20'0 0.0
2014-Jul-03 02:33N 50°51' W 001°20'0 0.0
2014-Jul-03 01:33N 50°50' W 001°20'0 0.0
2014-Jul-03 00:33N 50°51' W 001°20'0 0.0
2014-Jul-02 23:33N 50°50' W 001°20'0 0.0
2014-Jul-02 22:33N 50°51' W 001°20'0 0.0
2014-Jul-02 21:33N 50°51' W 001°20'0 0.0
2014-Jul-02 20:33N 50°51' W 001°20'0 0.0
2014-Jul-02 19:33N 50°51' W 001°20'0 0.0
2014-Jul-02 18:33N 50°51' W 001°20'0 0.0
2014-Jul-02 17:33N 50°51' W 001°20'0 0.0
2014-Jul-02 16:33N 50°50' W 001°20'0 0.0
2014-Jul-02 15:33N 50°51' W 001°20'0 0.0
2014-Jul-02 14:33N 50°51' W 001°20'0 0.0
2014-Jul-02 13:33N 50°50' W 001°20'0 0.0
2014-Jul-02 12:33N 50°51' W 001°20'0 0.0
2014-Jul-02 11:33N 50°51' W 001°20'0 0.0
2014-Jul-02 10:33N 50°51' W 001°20'0 0.0
2014-Jul-02 09:33N 50°51' W 001°20'0 0.0
2014-Jul-02 08:33N 50°51' W 001°20'0 0.0
2014-Jul-02 07:33N 50°50' W 001°20'0 0.0
2014-Jul-02 06:33N 50°51' W 001°20'0 0.0
2014-Jul-02 05:33N 50°51' W 001°20'0 0.0
2014-Jul-02 04:33N 50°50' W 001°20'0 0.0
2014-Jul-02 03:33N 50°51' W 001°20'0 0.0
2014-Jul-02 02:33N 50°51' W 001°20'0 0.0
2014-Jul-02 01:33N 50°50' W 001°20'0 0.0
2014-Jul-02 00:33N 50°51' W 001°20'0 0.0
2014-Jul-01 23:33N 50°51' W 001°20'0 0.0
2014-Jul-01 22:33N 50°51' W 001°20'0 0.0
2014-Jul-01 21:33N 50°51' W 001°20'0 0.0
2014-Jul-01 20:33N 50°51' W 001°20'0 0.0
2014-Jul-01 19:33N 50°51' W 001°20'0 0.0
2014-Jul-01 18:33N 50°51' W 001°20'0 0.1
2014-Jul-01 17:33N 50°51' W 001°20'0 0.0
2014-Jul-01 16:33N 50°51' W 001°20'0 0.0
2014-Jul-01 15:33N 50°51' W 001°20'0 0.0
2014-Jul-01 14:33N 50°51' W 001°20'0 0.0
2014-Jul-01 13:33N 50°51' W 001°20'0 0.0
2014-Jul-01 12:33N 50°51' W 001°20'0 0.0
2014-Jul-01 11:33N 50°51' W 001°20'0 0.0
2014-Jul-01 10:33N 50°51' W 001°20'0 0.0
2014-Jul-01 09:33N 50°51' W 001°20'0 0.0
2014-Jul-01 08:33N 50°51' W 001°20'0 0.0
2014-Jul-01 07:33N 50°51' W 001°20'0 0.0
2014-Jul-01 06:33N 50°51' W 001°20'0 0.0
2014-Jul-01 05:33N 50°51' W 001°20'0 0.0
2014-Jul-01 04:33N 50°51' W 001°20'0 0.0
2014-Jul-01 03:33N 50°51' W 001°20'0 0.0
2014-Jul-01 02:33N 50°51' W 001°20'0 0.0
2014-Jul-01 01:33N 50°51' W 001°20'0 0.0
2014-Jul-01 00:33N 50°51' W 001°20'0 0.0
2014-Jun-30 23:33N 50°51' W 001°20'0 0.0
2014-Jun-30 22:33N 50°51' W 001°20'0 0.0
2014-Jun-30 21:33N 50°51' W 001°20'0 0.0
2014-Jun-30 20:33N 50°51' W 001°20'0 0.0
2014-Jun-30 19:33N 50°51' W 001°20'0 0.0
2014-Jun-30 18:33N 50°51' W 001°20'0 0.0
2014-Jun-30 17:33N 50°51' W 001°20'0 0.0
2014-Jun-30 16:33N 50°51' W 001°20'0 0.0
2014-Jun-30 15:30N 50°51' W 001°20'0 0.0
2014-Jun-30 14:33N 50°51' W 001°20'0 0.0
2014-Jun-30 13:33N 50°51' W 001°20'0 0.0
2014-Jun-30 12:33N 50°51' W 001°20'0 0.0
2014-Jun-30 11:33N 50°51' W 001°20'0 0.0
2014-Jun-30 10:33N 50°51' W 001°20'0 0.0
2014-Jun-30 09:33N 50°51' W 001°20'0 0.0
2014-Jun-30 08:33N 50°51' W 001°20'0 0.0
2014-Jun-30 07:33N 50°51' W 001°20'0 0.0
2014-Jun-30 06:33N 50°51' W 001°20'0 0.0
2014-Jun-30 05:33N 50°51' W 001°20'0 0.0
2014-Jun-30 04:33N 50°51' W 001°20'0 0.0
2014-Jun-30 03:33N 50°51' W 001°20'0 0.0
2014-Jun-30 02:33N 50°51' W 001°20'0 0.0
2014-Jun-30 01:33N 50°51' W 001°20'2 1.8
2014-Jun-30 00:34N 50°49' W 001°18'6 5.7
2014-Jun-29 23:34N 50°46' W 001°11'9 9.0
2014-Jun-29 22:33N 50°42' W 000°58'5 4.7
2014-Jun-29 21:34N 50°38' W 001°02'1 0.7
2014-Jun-29 20:32N 50°38' W 001°03'0 0.0
2014-Jun-29 19:32N 50°38' W 001°03'0 0.0
2014-Jun-29 18:32N 50°38' W 001°03'0 0.1
2014-Jun-29 17:32N 50°38' W 001°03'0 0.1
2014-Jun-29 16:26N 50°38' W 001°03'0 0.0
2014-Jun-29 15:32N 50°38' W 001°03'0 0.0
2014-Jun-29 14:32N 50°38' W 001°03'0 0.0
2014-Jun-29 13:32N 50°38' W 001°03'0 0.0
2014-Jun-29 12:32N 50°38' W 001°03'0 0.2
2014-Jun-29 11:32N 50°38' W 001°03'0 0.1
2014-Jun-29 10:32N 50°38' W 001°03'0 0.0
2014-Jun-29 09:32N 50°38' W 001°03'0 0.0
2014-Jun-29 08:32N 50°38' W 001°03'0 0.0
2014-Jun-29 07:29N 50°38' W 001°03'0 0.2
2014-Jun-29 06:32N 50°38' W 001°03'0 0.1
2014-Jun-29 05:32N 50°38' W 001°03'0 0.0
2014-Jun-29 04:32N 50°38' W 001°03'0 0.0
2014-Jun-29 03:32N 50°38' W 001°03'0 0.0
2014-Jun-29 02:32N 50°38' W 001°03'0 0.0
2014-Jun-29 01:32N 50°38' W 001°03'0 0.0
2014-Jun-29 00:32N 50°38' W 001°03'0 0.2
2014-Jun-28 23:32N 50°38' W 001°03'0 0.0
2014-Jun-28 22:32N 50°38' W 001°03'0 0.0
2014-Jun-28 21:32N 50°38' W 001°03'0 0.0
2014-Jun-28 20:32N 50°38' W 001°03'0 0.0
2014-Jun-28 19:32N 50°38' W 001°03'0 0.0
2014-Jun-28 18:32N 50°38' W 001°03'0 0.0
2014-Jun-28 17:32N 50°38' W 001°03'0 0.2
2014-Jun-28 16:32N 50°38' W 001°03'0 0.0
2014-Jun-28 15:32N 50°38' W 001°03'0 0.0
2014-Jun-28 14:26N 50°38' W 001°03'0 0.0
2014-Jun-28 13:32N 50°38' W 001°03'0 0.0
2014-Jun-28 12:32N 50°38' W 001°03'0 0.2
2014-Jun-28 11:32N 50°38' W 001°03'0 0.0
2014-Jun-28 10:32N 50°38' W 001°03'0 0.0
2014-Jun-28 09:32N 50°38' W 001°03'0 0.0
2014-Jun-28 08:32N 50°38' W 001°03'0 0.0
2014-Jun-28 07:32N 50°38' W 001°03'0 0.0
2014-Jun-28 06:32N 50°38' W 001°03'0 0.0
2014-Jun-28 05:32N 50°38' W 001°03'0 0.2
2014-Jun-28 04:32N 50°38' W 001°03'0 0.1
2014-Jun-28 03:32N 50°38' W 001°03'0 0.0
2014-Jun-28 02:32N 50°38' W 001°03'  

Dump ship's entire track history